createdAt,value
2023-05-05T00:03:05.851Z,54
2023-05-05T00:13:05.789Z,55
2023-05-05T00:23:05.725Z,55
2023-05-05T00:33:05.703Z,55
2023-05-05T00:43:05.695Z,56
2023-05-05T00:53:05.626Z,56
2023-05-05T01:03:05.683Z,57
2023-05-05T01:13:05.633Z,57
2023-05-05T01:23:05.575Z,57
2023-05-05T01:33:05.598Z,58
2023-05-05T01:43:05.542Z,58
2023-05-05T01:53:05.497Z,58
2023-05-05T02:03:05.559Z,59
2023-05-05T02:13:05.604Z,59
2023-05-05T02:23:05.440Z,60
2023-05-05T02:33:05.555Z,60
2023-05-05T02:43:05.541Z,61
2023-05-05T02:53:05.418Z,61
2023-05-05T03:03:05.486Z,62
2023-05-05T03:13:05.381Z,62
2023-05-05T03:23:05.364Z,62
2023-05-05T03:33:05.333Z,63
2023-05-05T03:43:05.330Z,63
2023-05-05T03:53:05.301Z,63
2023-05-05T04:03:05.459Z,64
2023-05-05T04:13:05.287Z,64
2023-05-05T04:23:05.241Z,65
2023-05-05T04:33:05.250Z,65
2023-05-05T04:43:05.199Z,65
2023-05-05T04:53:05.183Z,65
2023-05-05T05:03:05.278Z,66
2023-05-05T05:13:05.231Z,66
2023-05-05T05:23:05.156Z,65
2023-05-05T05:33:05.189Z,65
2023-05-05T05:43:05.108Z,65
2023-05-05T05:53:05.086Z,65
2023-05-05T06:03:05.246Z,65
2023-05-05T06:13:05.116Z,65
2023-05-05T06:23:05.010Z,64
2023-05-05T06:33:05.110Z,64
2023-05-05T06:43:04.973Z,64
2023-05-05T06:53:04.997Z,64
2023-05-05T07:03:05.025Z,63
2023-05-05T07:13:04.975Z,63
2023-05-05T07:23:04.902Z,62
2023-05-05T07:33:04.964Z,62
2023-05-05T07:43:04.896Z,61
2023-05-05T07:53:13.549Z,61
2023-05-05T08:03:04.973Z,60
2023-05-05T08:13:04.866Z,60
2023-05-05T08:23:04.810Z,58
2023-05-05T08:33:04.809Z,57
2023-05-05T08:43:04.813Z,56
2023-05-05T08:53:04.769Z,56
2023-05-05T09:03:04.815Z,56
2023-05-05T09:13:04.738Z,55
2023-05-05T09:23:04.652Z,54
2023-05-05T09:33:04.710Z,52
2023-05-05T09:43:04.717Z,50
2023-05-05T09:53:04.614Z,48
2023-05-05T10:03:04.640Z,46
2023-05-05T10:13:04.576Z,45
2023-05-05T10:23:04.545Z,45
2023-05-05T10:33:22.225Z,44
2023-05-05T10:43:04.464Z,43
2023-05-05T10:53:04.462Z,41
2023-05-05T11:03:04.503Z,40
2023-05-05T11:13:04.475Z,39
2023-05-05T11:23:05.178Z,38
2023-05-05T11:33:04.457Z,38
2023-05-05T11:43:04.376Z,37
2023-05-05T11:53:04.322Z,36
2023-05-05T12:03:04.471Z,35
2023-05-05T12:13:04.332Z,34
2023-05-05T12:23:04.354Z,34
2023-05-05T12:33:04.448Z,33
2023-05-05T12:43:04.237Z,33
2023-05-05T12:53:04.226Z,32
2023-05-05T13:03:04.240Z,32
2023-05-05T13:13:04.198Z,31
2023-05-05T13:23:04.161Z,31
2023-05-05T13:33:04.193Z,31
2023-05-05T13:43:04.133Z,30
2023-05-05T13:53:04.092Z,30
2023-05-05T14:03:04.135Z,30
2023-05-05T14:13:04.094Z,30
2023-05-05T14:23:04.041Z,30
2023-05-05T14:33:04.058Z,30
2023-05-05T14:43:04.024Z,30
2023-05-05T14:53:03.971Z,30
2023-05-05T15:03:04.000Z,29
2023-05-05T15:13:03.946Z,29
2023-05-05T15:23:03.931Z,30
2023-05-05T15:33:03.903Z,30
2023-05-05T15:43:03.852Z,30
2023-05-05T15:53:03.845Z,30
2023-05-05T16:03:03.900Z,31
2023-05-05T16:13:03.856Z,30
2023-05-05T16:23:03.776Z,31
2023-05-05T16:33:03.832Z,30
2023-05-05T16:43:03.747Z,31
2023-05-05T16:53:03.701Z,32
2023-05-05T17:03:03.738Z,32
2023-05-05T17:13:03.798Z,33
2023-05-05T17:23:03.765Z,34
2023-05-05T17:33:03.700Z,34
2023-05-05T17:43:03.594Z,35
2023-05-05T17:53:03.580Z,36
2023-05-05T18:03:03.651Z,36
2023-05-05T18:13:03.583Z,36
2023-05-05T18:23:03.500Z,36
2023-05-05T18:33:03.535Z,37
2023-05-05T18:43:03.464Z,37
2023-05-05T18:53:03.495Z,37
2023-05-05T19:03:03.741Z,38
2023-05-05T19:13:03.387Z,38
2023-05-05T19:23:03.371Z,39
2023-05-05T19:33:03.425Z,39
2023-05-05T19:43:03.334Z,40
2023-05-05T19:53:03.323Z,40
2023-05-05T20:03:03.311Z,41
2023-05-05T20:13:03.358Z,41
2023-05-05T20:23:03.240Z,41
2023-05-05T20:33:03.285Z,41
2023-05-05T20:43:03.214Z,42
2023-05-05T20:53:03.187Z,42
2023-05-05T21:03:03.183Z,43
2023-05-05T21:13:03.153Z,44
2023-05-05T21:23:03.097Z,45
2023-05-05T21:33:03.135Z,45
2023-05-05T21:43:03.057Z,46
2023-05-05T21:53:03.039Z,47
2023-05-05T22:03:03.113Z,47
2023-05-05T22:13:03.019Z,48
2023-05-05T22:23:03.041Z,49
2023-05-05T22:33:03.028Z,49
2023-05-05T22:43:02.940Z,50
2023-05-05T22:53:02.939Z,51
2023-05-05T23:03:02.978Z,51
2023-05-05T23:13:02.930Z,52
2023-05-05T23:23:02.862Z,52
2023-05-05T23:33:02.887Z,53
2023-05-05T23:43:02.844Z,53
2023-05-05T23:53:02.805Z,54
